createdAt,value
2023-01-11T00:01:42.715Z,18.65
2023-01-11T00:06:45.502Z,18.77
2023-01-11T00:11:47.758Z,14.55
2023-01-11T00:16:49.774Z,12.52
2023-01-11T00:21:52.001Z,14.48
2023-01-11T00:26:54.084Z,15.40
2023-01-11T00:31:56.208Z,13.20
2023-01-11T00:36:58.346Z,12.35
2023-01-11T00:42:19.269Z,14.43
2023-01-11T00:47:39.665Z,17.13
2023-01-11T00:52:41.669Z,14.98
2023-01-11T00:57:43.708Z,13.27
2023-01-11T01:02:46.320Z,19.52
2023-01-11T01:07:48.468Z,18.10
2023-01-11T01:13:09.171Z,16.20
2023-01-11T01:18:11.269Z,14.23
2023-01-11T01:23:13.394Z,17.13
2023-01-11T01:28:15.410Z,17.63
2023-01-11T01:33:17.950Z,18.52
2023-01-11T01:38:19.949Z,19.60
2023-01-11T01:43:23.387Z,16.65
2023-01-11T01:48:26.642Z,23.85
2023-01-11T01:53:37.625Z,16.77
2023-01-11T02:03:43.827Z,20.30
2023-01-11T02:08:55.435Z,13.32
2023-01-11T02:14:08.933Z,15.93
2023-01-11T02:19:25.224Z,16.10
2023-01-11T02:24:56.364Z,16.83
2023-01-11T02:30:13.675Z,14.68
2023-01-11T02:35:34.554Z,18.15
2023-01-11T02:40:58.201Z,19.10
2023-01-11T02:46:19.792Z,15.70
2023-01-11T02:56:38.672Z,15.90
2023-01-11T03:01:53.031Z,14.95
2023-01-11T03:07:03.181Z,17.02
2023-01-11T03:12:42.152Z,18.37
2023-01-11T03:18:04.715Z,17.20
2023-01-11T03:23:10.386Z,11.80
2023-01-11T03:28:25.455Z,17.05
2023-01-11T03:33:39.663Z,13.85
2023-01-11T03:38:50.562Z,13.60
2023-01-11T03:43:56.571Z,11.38
2023-01-11T03:49:03.915Z,14.15
2023-01-11T03:54:09.837Z,9.25
2023-01-11T03:59:12.486Z,9.40
2023-01-11T04:04:14.502Z,9.98
2023-01-11T04:09:16.663Z,8.13
2023-01-11T04:14:18.657Z,10.75
2023-01-11T04:19:20.690Z,15.25
2023-01-11T04:24:22.885Z,15.43
2023-01-11T04:29:24.872Z,20.98
2023-01-11T04:34:26.915Z,22.38
2023-01-11T04:39:28.967Z,18.10
2023-01-11T04:44:31.001Z,22.80
2023-01-11T04:49:33.103Z,20.33
2023-01-11T04:54:35.254Z,18.38
2023-01-11T04:59:37.380Z,19.65
2023-01-11T05:04:40.709Z,19.02
2023-01-11T05:09:43.247Z,15.07
2023-01-11T05:14:45.401Z,17.65
2023-01-11T05:19:47.575Z,16.02
2023-01-11T05:24:49.790Z,17.00
2023-01-11T05:29:51.982Z,18.65
2023-01-11T05:34:54.096Z,32.15
2023-01-11T05:39:56.126Z,21.13
2023-01-11T05:45:17.000Z,23.27
2023-01-11T05:50:19.058Z,21.97
2023-01-11T05:55:21.142Z,21.35
2023-01-11T06:00:23.635Z,22.13
2023-01-11T06:05:25.679Z,18.73
2023-01-11T06:10:27.696Z,30.23
2023-01-11T06:15:29.713Z,21.75
2023-01-11T06:20:31.806Z,24.88
2023-01-11T06:25:37.515Z,26.15
2023-01-11T06:30:39.702Z,29.92
2023-01-11T06:35:43.472Z,19.58
2023-01-11T06:40:52.849Z,24.30
2023-01-11T06:45:55.267Z,27.58
2023-01-11T06:50:58.531Z,27.17
2023-01-11T06:56:00.690Z,28.85
2023-01-11T07:01:02.936Z,32.25
2023-01-11T07:06:05.311Z,31.67
2023-01-11T07:11:08.644Z,23.27
2023-01-11T07:16:10.816Z,28.48
2023-01-11T07:21:12.883Z,21.90
2023-01-11T07:26:17.100Z,29.30
2023-01-11T07:31:19.306Z,18.92
2023-01-11T07:36:21.468Z,17.92
2023-01-11T07:41:42.124Z,21.33
2023-01-11T07:46:47.390Z,30.40
2023-01-11T07:51:51.975Z,25.63
2023-01-11T07:56:56.560Z,18.27
2023-01-11T08:01:58.976Z,21.80
2023-01-11T08:07:01.157Z,28.90
2023-01-11T08:12:21.852Z,19.35
2023-01-11T08:17:23.997Z,25.80
2023-01-11T08:22:25.999Z,23.98
2023-01-11T08:27:28.055Z,22.52
2023-01-11T08:32:30.158Z,19.80
2023-01-11T08:37:32.237Z,19.98
2023-01-11T08:42:34.359Z,20.05
2023-01-11T08:47:36.383Z,24.20
2023-01-11T08:52:38.513Z,26.48
2023-01-11T08:57:40.639Z,19.33
2023-01-11T09:02:45.110Z,19.55
2023-01-11T09:07:47.157Z,23.90
2023-01-11T09:12:49.248Z,18.15
2023-01-11T09:17:52.306Z,17.98
2023-01-11T09:22:54.345Z,16.05
2023-01-11T09:27:56.506Z,20.55
2023-01-11T09:32:58.525Z,23.23
2023-01-11T09:38:01.784Z,24.65
2023-01-11T09:43:07.186Z,25.63
2023-01-11T09:48:21.277Z,21.42
2023-01-11T09:53:36.104Z,30.80
2023-01-11T09:58:53.460Z,25.30
2023-01-11T10:04:16.418Z,24.90
2023-01-11T10:18:29.212Z,27.63
2023-01-11T10:20:47.474Z,23.42
2023-01-11T10:25:55.228Z,29.20
2023-01-11T10:30:57.742Z,25.05
2023-01-11T10:36:14.866Z,21.73
2023-01-11T10:41:26.390Z,22.95
2023-01-11T10:46:30.038Z,19.30
2023-01-11T10:51:37.843Z,23.17
2023-01-11T10:57:03.225Z,28.13
2023-01-11T11:02:26.201Z,22.38
2023-01-11T11:07:43.689Z,27.60
2023-01-11T11:13:10.000Z,21.75
2023-01-11T11:18:12.884Z,19.67
2023-01-11T11:23:23.067Z,19.52
2023-01-11T11:28:33.231Z,21.50
2023-01-11T11:33:38.903Z,24.93
2023-01-11T11:39:03.213Z,24.33
2023-01-11T11:44:16.139Z,19.95
2023-01-11T11:49:18.605Z,18.05
2023-01-11T11:54:41.610Z,21.10
2023-01-11T11:59:49.443Z,26.77
2023-01-11T12:04:53.296Z,25.73
2023-01-11T12:10:09.324Z,20.85
2023-01-11T12:15:20.846Z,23.15
2023-01-11T12:20:22.873Z,21.30
2023-01-11T12:25:28.806Z,15.30
2023-01-11T12:30:38.551Z,18.92
2023-01-11T12:35:46.583Z,18.25
2023-01-11T12:41:08.795Z,21.15
2023-01-11T12:46:50.200Z,23.05
2023-01-11T12:52:15.860Z,24.40
2023-01-11T12:57:41.586Z,18.98
2023-01-11T13:03:06.899Z,19.40
2023-01-11T13:08:19.997Z,18.17
2023-01-11T13:13:22.512Z,25.08
2023-01-11T13:18:57.184Z,29.08
2023-01-11T13:24:05.404Z,21.42
2023-01-11T13:29:13.697Z,23.13
2023-01-11T13:34:35.374Z,17.05
2023-01-11T13:39:45.563Z,21.67
2023-01-11T13:45:03.200Z,20.93
2023-01-11T13:50:12.438Z,19.98
2023-01-11T13:55:25.970Z,19.00
2023-01-11T14:00:33.640Z,24.55
2023-01-11T14:05:44.397Z,13.88
2023-01-11T14:11:05.073Z,17.88
2023-01-11T14:16:18.423Z,16.73
2023-01-11T14:21:33.948Z,12.40
2023-01-11T14:26:54.435Z,20.60
2023-01-11T14:32:11.337Z,16.73
2023-01-11T14:37:56.144Z,16.98
2023-01-11T14:43:10.199Z,15.18
2023-01-11T14:48:24.694Z,15.05
2023-01-11T14:53:30.939Z,13.20
2023-01-11T14:58:33.137Z,17.77
2023-01-11T15:03:41.470Z,11.38
2023-01-11T15:08:47.464Z,18.88
2023-01-11T15:13:57.193Z,15.45
2023-01-11T15:19:06.084Z,17.08
2023-01-11T15:24:25.556Z,19.63
2023-01-11T15:29:41.492Z,16.92
2023-01-11T15:34:47.555Z,23.73
2023-01-11T15:40:36.765Z,9.43
2023-01-11T15:45:38.703Z,13.75
2023-01-11T15:51:18.403Z,21.40
2023-01-11T15:56:36.316Z,26.23
2023-01-11T16:01:48.814Z,16.95
2023-01-11T16:07:22.165Z,16.85
2023-01-11T16:12:27.201Z,22.70
2023-01-11T16:17:29.387Z,14.60
2023-01-11T16:22:31.472Z,15.55
2023-01-11T16:27:35.172Z,20.02
2023-01-11T16:32:37.566Z,21.60
2023-01-11T16:37:45.070Z,16.13
2023-01-11T16:42:53.834Z,16.20
2023-01-11T16:48:12.601Z,15.38
2023-01-11T16:53:16.200Z,20.58
2023-01-11T16:58:30.626Z,16.15
2023-01-11T17:03:38.463Z,14.70
2023-01-11T17:08:54.241Z,23.45
2023-01-11T17:14:27.907Z,18.30
2023-01-11T17:19:32.450Z,19.70
2023-01-11T17:24:40.759Z,16.00
2023-01-11T17:29:43.112Z,14.88
2023-01-11T17:34:45.824Z,17.00
2023-01-11T17:39:53.116Z,15.57
2023-01-11T17:45:14.177Z,18.95
2023-01-11T17:50:22.278Z,18.90
2023-01-11T17:55:27.029Z,21.35
2023-01-11T18:00:29.851Z,18.70
2023-01-11T18:05:32.049Z,21.58
2023-01-11T18:10:38.099Z,15.05
2023-01-11T18:15:40.288Z,16.25
2023-01-11T18:20:42.595Z,20.88
2023-01-11T18:25:46.496Z,15.10
2023-01-11T18:30:54.814Z,17.95
2023-01-11T18:36:03.042Z,19.77
2023-01-11T18:41:27.878Z,16.27
2023-01-11T18:46:30.018Z,24.38
2023-01-11T18:51:35.148Z,18.58
2023-01-11T18:56:37.237Z,18.15
2023-01-11T19:01:54.481Z,15.52
2023-01-11T19:07:01.159Z,23.88
2023-01-11T19:12:03.654Z,16.75
2023-01-11T19:17:07.509Z,18.83
2023-01-11T19:22:10.651Z,19.48
2023-01-11T19:27:13.381Z,20.08
2023-01-11T19:32:17.260Z,17.08
2023-01-11T19:37:19.744Z,20.85
2023-01-11T19:42:23.679Z,22.00
2023-01-11T19:47:25.831Z,18.75
2023-01-11T19:52:28.016Z,18.25
2023-01-11T19:57:30.173Z,19.23
2023-01-11T20:02:32.180Z,21.75
2023-01-11T20:07:34.269Z,23.35
2023-01-11T20:12:36.417Z,28.50
2023-01-11T20:17:38.417Z,25.00
2023-01-11T20:22:44.115Z,19.90
2023-01-11T20:27:46.184Z,19.52
2023-01-11T20:32:48.272Z,25.73
2023-01-11T20:37:50.584Z,21.60
2023-01-11T20:42:52.707Z,14.55
2023-01-11T20:47:54.815Z,20.02
2023-01-11T20:52:59.320Z,17.15
2023-01-11T20:58:01.571Z,24.88
2023-01-11T21:03:03.838Z,22.42
2023-01-11T21:08:06.077Z,18.40
2023-01-11T21:18:09.203Z,13.73
2023-01-11T21:23:15.208Z,18.25
2023-01-11T21:28:17.298Z,17.63
2023-01-11T21:33:19.436Z,21.90
2023-01-11T21:38:21.521Z,20.00
2023-01-11T21:43:23.544Z,14.05
2023-01-11T21:48:26.320Z,11.57
2023-01-11T21:53:32.745Z,14.73
2023-01-11T21:58:35.381Z,14.50
2023-01-11T22:03:37.850Z,11.70
2023-01-11T22:08:39.953Z,12.75
2023-01-11T22:13:42.452Z,6.70
2023-01-11T22:18:45.712Z,8.30
2023-01-11T22:23:48.258Z,11.68
2023-01-11T22:29:12.163Z,15.10
2023-01-11T22:34:14.703Z,6.40
2023-01-11T22:39:19.234Z,5.32
2023-01-11T22:44:21.257Z,6.15
2023-01-11T22:49:23.279Z,4.30
2023-01-11T22:54:25.437Z,4.78
2023-01-11T22:59:27.547Z,4.60
2023-01-11T23:04:29.607Z,8.50
2023-01-11T23:09:31.799Z,7.65
2023-01-11T23:14:33.921Z,11.02
2023-01-11T23:19:38.315Z,8.80
2023-01-11T23:24:41.084Z,10.00
2023-01-11T23:29:43.499Z,8.85
2023-01-11T23:34:45.686Z,10.32
2023-01-11T23:39:47.729Z,12.02
2023-01-11T23:44:49.841Z,19.10
2023-01-11T23:49:54.412Z,21.58
2023-01-11T23:54:56.989Z,17.08
2023-01-11T23:59:59.188Z,15.48
